Andalusia, Alabama
Current Conditions -  °F | °C
As of 6:09 AM on Monday 22 Dec 2014 (Local Time) from K79J Reporting Station
Haze Haze  
Wind Chill: 55°   Ceiling: 200
Heat Index: 55°   Visibility: 1.2mi
Dew Point: 52°   Wind: 3mph
Humidity: 88%   Direction: 70°ENE
Pressure: 29.96"   Gusts: NA
Location:  31.32°N, 86.49°W
Report Text: K79J 221209Z AUTO 07003KT 1 1/4SM BR OVC002 13/11 A2996 RMK AO2
Loading
Personal Weather Stations






























Interactive Weather Map New forecast layout! Learn more

10-Day Weather Forecast

Advertisements
Track Severe Weather on mobile